Time;durP1;ratioP1;P1;durP2;ratioP2;P2;SDS_P1;SDS_P2;PMS_P1;PMS_P2;Temp;Humidity;BMP_temperature;BMP_pressure;BME280_temperature;BME280_humidity;BME280_pressure;Samples;Min_cycle;Max_cycle;Signal;HPM_P1;HPM_P2
2022/07/28 00:02:18;;;;;;;2.77;1.50;;;;;;;19.54;49.98;98051.88;5056849;28;20202;-69
2022/07/28 00:04:44;;;;;;;1.83;1.40;;;;;;;19.48;49.80;98051.38;5056487;28;20664;-69
2022/07/28 00:07:11;;;;;;;2.80;1.33;;;;;;;19.51;49.80;98048.91;5056522;28;20649;-69
2022/07/28 00:09:39;;;;;;;4.07;1.50;;;;;;;19.44;49.99;98054.59;5056582;28;20253;-69
2022/07/28 00:12:06;;;;;;;2.60;1.50;;;;;;;19.44;50.17;98043.00;5056766;28;20300;-69
2022/07/28 00:14:33;;;;;;;3.33;1.50;;;;;;;19.45;50.02;98034.66;5056401;28;20207;-69
2022/07/28 00:16:59;;;;;;;2.77;1.50;;;;;;;19.44;49.90;98033.03;5056698;28;20205;-69
2022/07/28 00:19:26;;;;;;;4.47;1.83;;;;;;;19.52;50.30;98037.03;5056190;28;20229;-69
2022/07/28 00:21:52;;;;;;;2.50;1.40;;;;;;;19.38;50.85;98034.16;5056530;28;20237;-69
2022/07/28 00:24:19;;;;;;;2.57;1.57;;;;;;;19.44;50.54;98034.91;5056028;28;20201;-69
2022/07/28 00:26:45;;;;;;;2.70;1.73;;;;;;;19.31;50.77;98039.00;5056525;28;20296;-69
2022/07/28 00:29:12;;;;;;;4.60;1.60;;;;;;;19.19;50.80;98034.97;5056344;28;20321;-69
2022/07/28 00:31:39;;;;;;;2.43;1.30;;;;;;;19.17;50.92;98029.03;5056574;28;20786;-69
2022/07/28 00:34:05;;;;;;;3.50;1.60;;;;;;;19.22;50.90;98027.19;5056304;28;20297;-69
2022/07/28 00:36:31;;;;;;;2.50;1.60;;;;;;;19.20;50.89;98029.31;5056278;28;20225;-69
2022/07/28 00:38:58;;;;;;;1.57;1.33;;;;;;;19.16;51.27;98030.94;5055879;28;20225;-69
2022/07/28 00:41:24;;;;;;;2.97;1.43;;;;;;;19.12;51.07;98023.66;5056193;28;20212;-69
2022/07/28 00:43:52;;;;;;;2.77;1.43;;;;;;;19.07;51.25;98023.69;5056166;28;20213;-69
2022/07/28 00:46:21;;;;;;;3.00;1.50;;;;;;;19.02;51.43;98019.13;5056008;28;20604;-69
2022/07/28 00:48:53;;;;;;;4.27;1.50;;;;;;;19.06;51.02;98030.97;5055673;28;20752;-69
2022/07/28 00:51:24;;;;;;;2.60;1.53;;;;;;;19.08;51.33;98031.50;5056017;28;20285;-69
2022/07/28 00:53:51;;;;;;;2.57;1.30;;;;;;;19.04;51.41;98033.13;5055290;28;20194;-68
2022/07/28 00:56:18;;;;;;;4.47;1.63;;;;;;;19.08;51.50;98028.00;5055871;28;20396;-69
2022/07/28 00:58:46;;;;;;;3.40;1.50;;;;;;;18.96;51.48;98025.59;5055530;28;20228;-69
2022/07/28 01:01:16;;;;;;;3.63;1.70;;;;;;;19.07;51.36;98023.69;5055500;28;20205;-69
2022/07/28 01:03:45;;;;;;;3.83;1.40;;;;;;;18.97;51.66;98029.94;5055488;28;20219;-69
2022/07/28 01:06:39;;;;;;;3.07;1.33;;;;;;;19.06;51.54;98022.91;5055634;28;20240;-69
2022/07/28 01:09:39;;;;;;;2.87;1.50;;;;;;;18.97;51.59;98016.47;5055259;28;20768;-69
2022/07/28 01:12:43;;;;;;;4.13;1.60;;;;;;;18.83;52.22;98017.28;5055255;28;20205;-69
2022/07/28 01:15:27;;;;;;;1.77;1.37;;;;;;;18.84;52.31;98018.88;5055529;28;20201;-69
2022/07/28 01:18:12;;;;;;;1.77;1.40;;;;;;;18.82;52.91;98012.97;5054417;28;20280;-69
2022/07/28 01:20:44;;;;;;;5.07;2.07;;;;;;;18.81;53.81;98011.34;5055164;28;20668;-69
2022/07/28 01:23:19;;;;;;;5.47;1.43;;;;;;;18.74;54.25;98010.84;5055472;28;20192;-69
2022/07/28 01:26:10;;;;;;;3.10;1.47;;;;;;;18.69;54.42;98013.53;5055192;28;20320;-69
2022/07/28 01:29:05;;;;;;;2.20;1.33;;;;;;;18.64;54.56;98002.78;5054992;28;20231;-69
2022/07/28 01:31:40;;;;;;;3.77;2.00;;;;;;;18.57;54.79;97997.66;5054946;28;20220;-69
2022/07/28 01:34:16;;;;;;;4.10;1.70;;;;;;;18.60;54.63;97999.78;5055424;28;20204;-69
2022/07/28 01:36:55;;;;;;;2.33;1.40;;;;;;;18.60;54.85;97999.00;5055230;28;20192;-69
2022/07/28 01:39:26;;;;;;;4.47;1.83;;;;;;;18.49;54.75;97994.69;5054017;28;20282;-69
2022/07/28 01:41:57;;;;;;;2.03;1.70;;;;;;;18.44;54.94;97994.69;5055321;28;20196;-69
2022/07/28 01:44:26;;;;;;;3.00;1.60;;;;;;;18.52;54.86;97997.66;5053649;28;20541;-69
2022/07/28 01:46:54;;;;;;;2.40;1.80;;;;;;;18.45;55.07;97999.81;5053884;28;20225;-69
2022/07/28 01:49:23;;;;;;;4.13;1.73;;;;;;;18.31;55.33;97993.34;5054879;28;20307;-69
2022/07/28 01:51:51;;;;;;;3.80;1.73;;;;;;;18.32;55.64;97989.56;5054854;28;20300;-69
2022/07/28 01:54:20;;;;;;;2.57;1.60;;;;;;;18.31;56.07;97989.81;5037059;28;20211;-69
2022/07/28 01:56:49;;;;;;;2.80;1.43;;;;;;;18.27;56.22;97981.50;5054720;28;20202;-69
2022/07/28 01:59:17;;;;;;;3.20;1.60;;;;;;;18.17;55.66;97989.56;5053193;28;20312;-69
2022/07/28 02:01:45;;;;;;;3.23;1.67;;;;;;;18.02;56.19;97984.19;5054678;28;20211;-69
2022/07/28 02:04:15;;;;;;;3.33;1.50;;;;;;;17.97;56.63;97976.09;5054606;28;20201;-69
2022/07/28 02:06:43;;;;;;;4.50;1.53;;;;;;;17.91;56.91;97977.16;5053516;28;20225;-69
2022/07/28 02:09:11;;;;;;;2.60;1.80;;;;;;;17.86;56.93;97981.72;5053947;28;20712;-69
2022/07/28 02:11:39;;;;;;;4.30;1.67;;;;;;;17.93;56.38;97980.41;5054188;28;20744;-69
2022/07/28 02:14:18;;;;;;;2.43;1.40;;;;;;;17.96;56.64;97979.84;5036799;28;20296;-69
2022/07/28 02:16:48;;;;;;;4.07;1.40;;;;;;;17.81;56.61;97979.84;5054392;28;20211;-69
2022/07/28 02:19:18;;;;;;;4.20;1.50;;;;;;;17.73;57.06;97980.38;5053968;28;20221;-69
2022/07/28 02:21:46;;;;;;;3.10;1.40;;;;;;;17.74;56.99;97971.22;5054234;28;20201;-69
2022/07/28 02:24:13;;;;;;;2.57;1.73;;;;;;;17.67;57.41;97969.84;5036298;28;20212;-69
2022/07/28 02:26:46;;;;;;;2.63;1.50;;;;;;;17.70;57.31;97974.72;5052999;28;20307;-69
2022/07/28 02:29:14;;;;;;;2.03;1.50;;;;;;;17.64;57.79;97965.81;5053849;28;20229;-69
2022/07/28 02:31:50;;;;;;;3.80;1.67;;;;;;;17.61;58.02;97968.25;5053754;28;20648;-69
2022/07/28 02:34:22;;;;;;;3.63;1.50;;;;;;;17.46;58.54;97963.63;5053786;28;20667;-69
2022/07/28 02:36:59;;;;;;;3.50;1.50;;;;;;;17.51;58.53;97960.94;5052955;28;20189;-69
2022/07/28 02:39:29;;;;;;;4.67;1.77;;;;;;;17.42;58.94;97961.75;5053939;28;20227;-69
2022/07/28 02:42:02;;;;;;;2.27;1.50;;;;;;;17.46;58.86;97962.84;5036700;28;20210;-69
2022/07/28 02:44:35;;;;;;;1.90;1.30;;;;;;;17.48;58.84;97956.13;5053904;28;20193;-69
2022/07/28 02:47:06;;;;;;;4.63;1.60;;;;;;;17.45;59.00;97953.97;5053776;28;20210;-69
2022/07/28 02:49:35;;;;;;;2.93;1.60;;;;;;;17.41;59.45;97954.75;5053744;28;20229;-69
2022/07/28 02:52:05;;;;;;;2.77;1.67;;;;;;;17.40;59.14;97953.94;5052624;28;20209;-69
2022/07/28 02:54:32;;;;;;;1.70;1.43;;;;;;;17.43;59.02;97963.34;5053391;28;20208;-69
2022/07/28 02:57:00;;;;;;;3.53;1.50;;;;;;;17.37;59.34;97967.06;5053394;28;20207;-69
2022/07/28 02:59:28;;;;;;;4.40;1.60;;;;;;;17.33;59.54;97969.47;5053268;28;20726;-69
2022/07/28 03:01:56;;;;;;;2.87;1.67;;;;;;;17.54;58.72;97957.75;5051837;28;20259;-69
2022/07/28 03:07:05;;;;;;;2.93;1.80;;;;;;;17.46;58.73;97957.47;5052255;28;20283;-69
2022/07/28 03:09:38;;;;;;;2.63;1.60;;;;;;;17.53;58.49;97958.00;5053034;28;20232;-68
2022/07/28 03:12:05;;;;;;;2.80;1.67;;;;;;;17.48;58.63;97955.31;5054088;28;20277;-69
2022/07/28 03:14:32;;;;;;;1.70;1.60;;;;;;;17.62;58.22;97945.66;5054162;28;20228;-69
2022/07/28 03:16:58;;;;;;;4.07;1.60;;;;;;;17.45;59.15;97951.25;5052721;28;20207;-69
2022/07/28 03:19:24;;;;;;;5.13;1.50;;;;;;;17.37;59.03;97954.44;5053140;28;20247;-69
2022/07/28 03:21:52;;;;;;;3.13;1.57;;;;;;;17.30;58.86;97958.44;5053282;28;20292;-69
2022/07/28 03:24:21;;;;;;;3.83;1.60;;;;;;;17.33;59.51;97960.63;5053294;28;20237;-69
2022/07/28 03:26:59;;;;;;;2.57;1.53;;;;;;;17.22;58.58;97957.06;5052035;28;20221;-70
2022/07/28 03:29:28;;;;;;;4.40;1.67;;;;;;;17.17;59.10;97962.44;5053079;28;20236;-69
2022/07/28 03:31:56;;;;;;;2.60;1.43;;;;;;;17.31;59.05;97962.75;5053159;28;20216;-69
2022/07/28 03:34:23;;;;;;;3.93;1.50;;;;;;;17.33;58.86;97966.00;5051763;28;20241;-69
2022/07/28 03:36:56;;;;;;;3.23;1.70;;;;;;;17.35;58.24;97963.81;5052897;28;20228;-69
2022/07/28 03:39:25;;;;;;;2.93;1.63;;;;;;;17.25;59.06;97955.75;5053464;28;20239;-69
2022/07/28 03:41:52;;;;;;;3.67;1.67;;;;;;;17.28;58.79;97969.44;5051489;28;20760;-69
2022/07/28 03:44:20;;;;;;;3.70;1.50;;;;;;;17.29;58.83;97965.69;5052887;28;20436;-69
2022/07/28 03:46:46;;;;;;;4.50;1.70;;;;;;;17.47;58.24;97959.88;5052457;28;20591;-69
2022/07/28 03:49:13;;;;;;;5.20;1.43;;;;;;;17.35;58.59;97966.53;5052935;28;20256;-69
2022/07/28 03:51:39;;;;;;;3.17;1.60;;;;;;;17.34;58.63;97967.59;5052933;28;20201;-69
2022/07/28 03:54:06;;;;;;;5.60;1.70;;;;;;;17.32;58.33;97972.44;5052625;28;20743;-69
2022/07/28 03:56:32;;;;;;;4.10;1.50;;;;;;;17.29;58.59;97970.28;5052640;28;20661;-69
2022/07/28 03:58:58;;;;;;;3.97;1.50;;;;;;;17.25;58.72;97970.00;5052559;28;20635;-69
2022/07/28 04:01:25;;;;;;;3.53;1.77;;;;;;;17.26;58.80;97973.47;5052567;28;20213;-69
2022/07/28 04:03:52;;;;;;;5.37;1.70;;;;;;;17.20;58.73;97975.31;5052620;28;20304;-69
2022/07/28 04:06:18;;;;;;;3.90;1.67;;;;;;;17.25;58.74;97975.38;5051991;28;20236;-69
2022/07/28 04:08:45;;;;;;;3.97;1.97;;;;;;;17.25;58.80;97982.63;5052289;28;20233;-69
2022/07/28 04:11:11;;;;;;;5.17;1.80;;;;;;;17.19;58.96;97980.97;5052560;28;20675;-69
2022/07/28 04:13:38;;;;;;;4.13;1.67;;;;;;;17.18;59.34;97979.34;5053109;28;20201;-69
2022/07/28 04:16:06;;;;;;;3.70;1.50;;;;;;;17.05;59.01;97985.22;5052619;28;20564;-69
2022/07/28 04:18:33;;;;;;;2.00;1.53;;;;;;;17.08;59.02;97982.81;5052600;28;20236;-69
2022/07/28 04:20:59;;;;;;;2.43;1.73;;;;;;;16.96;59.33;97981.41;5052374;28;20763;-69
2022/07/28 04:23:26;;;;;;;2.60;1.50;;;;;;;17.04;59.53;97987.09;5052056;28;20207;-69
2022/07/28 04:25:52;;;;;;;3.57;1.57;;;;;;;17.28;58.74;97984.78;5052089;28;20324;-69
2022/07/28 04:28:18;;;;;;;2.73;1.97;;;;;;;17.20;58.74;97986.06;5052077;28;20575;-69
2022/07/28 04:30:45;;;;;;;3.13;1.73;;;;;;;17.00;59.35;97996.72;5055358;28;20208;-68
2022/07/28 04:33:11;;;;;;;4.73;1.77;;;;;;;17.22;59.38;97986.63;5056101;28;20213;-69
2022/07/28 04:35:38;;;;;;;3.30;1.77;;;;;;;17.07;59.28;97986.56;5055794;28;20295;-69
2022/07/28 04:38:04;;;;;;;4.43;1.60;;;;;;;17.23;58.98;97980.19;5056081;28;20295;-69
2022/07/28 04:40:32;;;;;;;2.47;1.80;;;;;;;17.18;59.01;97982.84;5055788;28;20320;-69
2022/07/28 04:42:58;;;;;;;4.63;1.80;;;;;;;17.27;58.94;97978.59;5055593;28;20586;-69
2022/07/28 04:45:25;;;;;;;4.87;1.83;;;;;;;17.29;58.66;97975.66;5055328;28;20299;-69
2022/07/28 04:47:52;;;;;;;5.60;2.10;;;;;;;17.19;58.90;97973.72;5055514;28;20201;-69
2022/07/28 04:50:20;;;;;;;1.90;1.70;;;;;;;17.31;58.82;97976.16;5055712;28;20312;-71
2022/07/28 04:52:48;;;;;;;4.97;1.97;;;;;;;17.12;59.21;97981.22;5055079;28;20734;-69
2022/07/28 04:55:14;;;;;;;3.23;1.83;;;;;;;17.12;59.40;97977.72;5055703;28;20208;-70
2022/07/28 04:57:42;;;;;;;3.67;1.83;;;;;;;17.17;59.43;97980.41;5055570;28;20201;-69
2022/07/28 05:00:12;;;;;;;6.50;1.70;;;;;;;17.25;59.57;97982.63;5055229;28;20225;-68
2022/07/28 05:02:40;;;;;;;5.13;2.00;;;;;;;17.38;58.94;97984.81;5054935;28;20263;-69
2022/07/28 05:05:06;;;;;;;2.73;1.63;;;;;;;17.50;58.60;97972.00;5055297;28;20202;-69
2022/07/28 05:07:33;;;;;;;3.63;1.80;;;;;;;17.55;58.50;97972.78;5054746;28;20606;-69
2022/07/28 05:09:59;;;;;;;4.17;1.80;;;;;;;17.61;58.13;97979.81;5055350;28;20229;-69
2022/07/28 05:12:26;;;;;;;3.83;1.80;;;;;;;17.56;58.14;97979.00;5054855;28;20758;-69
2022/07/28 05:14:52;;;;;;;4.90;1.87;;;;;;;17.69;57.89;97981.16;5054551;28;20295;-69
2022/07/28 05:17:18;;;;;;;5.20;1.77;;;;;;;17.98;57.89;97984.97;5054803;28;20231;-69
2022/07/28 05:19:45;;;;;;;6.90;1.90;;;;;;;17.72;57.44;97984.13;5055178;28;20331;-69
2022/07/28 05:22:11;;;;;;;4.00;2.00;;;;;;;18.00;57.41;97985.53;5054447;28;20639;-71
2022/07/28 05:24:38;;;;;;;3.87;1.70;;;;;;;17.95;57.18;97989.00;5054359;28;20734;-68
2022/07/28 05:27:04;;;;;;;3.37;1.50;;;;;;;18.13;56.43;97980.41;5054622;28;20229;-68
2022/07/28 05:29:30;;;;;;;6.03;1.93;;;;;;;18.13;56.79;97979.59;5054637;28;20319;-69
2022/07/28 05:31:57;;;;;;;3.70;2.10;;;;;;;18.11;56.65;97981.75;5054930;28;20212;-68
2022/07/28 05:34:23;;;;;;;6.07;2.17;;;;;;;18.31;56.82;97979.06;5055025;28;20304;-68
2022/07/28 05:36:50;;;;;;;3.33;2.10;;;;;;;18.42;56.90;97976.13;5054171;28;20207;-69
2022/07/28 05:39:17;;;;;;;4.03;3.30;;;;;;;18.25;56.64;97975.59;5053995;28;20225;-68
2022/07/28 05:41:43;;;;;;;4.53;2.30;;;;;;;18.39;56.61;97982.06;5054328;28;20260;-69
2022/07/28 05:44:09;;;;;;;2.83;2.20;;;;;;;18.34;56.70;97975.88;5053763;28;20209;-69
2022/07/28 05:46:36;;;;;;;4.13;2.10;;;;;;;18.64;57.12;97981.22;5054477;28;20312;-68
2022/07/28 05:49:04;;;;;;;5.27;2.23;;;;;;;18.71;56.32;97979.88;5053750;28;20312;-68
2022/07/28 05:51:30;;;;;;;5.93;2.10;;;;;;;18.43;57.15;97980.44;5054191;28;20251;-68
2022/07/28 05:53:56;;;;;;;5.23;2.10;;;;;;;18.81;56.30;97976.34;5054081;28;20291;-69
2022/07/28 05:56:23;;;;;;;6.83;2.60;;;;;;;18.74;56.50;97976.63;5054251;28;20538;-69
2022/07/28 05:58:49;;;;;;;4.90;2.33;;;;;;;19.01;55.78;97977.09;5054115;28;20231;-69
2022/07/28 06:01:16;;;;;;;4.93;2.10;;;;;;;19.02;55.80;97981.41;5053697;28;20665;-69
2022/07/28 06:03:42;;;;;;;3.33;1.80;;;;;;;18.68;56.16;97991.19;5053999;28;20201;-69
2022/07/28 06:06:09;;;;;;;3.10;1.90;;;;;;;18.91;56.31;97976.31;5053517;28;20324;-69
2022/07/28 06:08:36;;;;;;;3.03;1.90;;;;;;;19.18;55.44;97977.56;5053598;28;20321;-69
2022/07/28 06:11:08;;;;;;;3.17;2.03;;;;;;;19.17;55.53;97977.84;5053485;28;20201;-69
2022/07/28 06:13:35;;;;;;;5.03;1.90;;;;;;;19.52;55.51;97972.31;5053691;28;20214;-69
2022/07/28 06:16:03;;;;;;;5.53;2.10;;;;;;;19.36;55.14;97976.19;5053983;28;20266;-69
2022/07/28 06:18:29;;;;;;;5.47;2.17;;;;;;;19.39;55.32;97973.75;5053523;28;20296;-69
2022/07/28 06:20:55;;;;;;;4.57;2.20;;;;;;;19.60;55.09;97969.84;5053447;28;20690;-68
2022/07/28 06:23:23;;;;;;;2.87;2.00;;;;;;;19.62;54.55;97983.06;5053673;28;20220;-69
2022/07/28 06:25:53;;;;;;;5.50;2.53;;;;;;;19.73;54.89;97981.09;5053198;28;20213;-69
2022/07/28 06:28:20;;;;;;;7.03;2.63;;;;;;;19.63;55.75;97972.00;5053078;28;20213;-69
2022/07/28 06:30:48;;;;;;;4.47;2.40;;;;;;;19.60;56.01;97979.84;5053265;28;20209;-69
2022/07/28 06:33:17;;;;;;;4.73;2.40;;;;;;;19.89;55.11;97969.16;5053817;28;20266;-69
2022/07/28 06:35:45;;;;;;;3.83;2.17;;;;;;;19.91;55.20;97970.47;5053043;28;20233;-70
2022/07/28 06:38:11;;;;;;;4.10;2.43;;;;;;;19.87;55.29;97974.81;5052657;28;20295;-70
2022/07/28 06:40:37;;;;;;;4.67;2.80;;;;;;;19.75;55.99;97973.56;5053365;28;20209;-69
2022/07/28 06:43:04;;;;;;;3.20;2.30;;;;;;;19.75;56.00;97973.56;5053510;28;20300;-69
2022/07/28 06:45:30;;;;;;;4.40;3.00;;;;;;;19.99;56.34;97974.47;5053153;28;20292;-69
2022/07/28 06:47:57;;;;;;;6.90;3.27;;;;;;;20.23;55.53;97975.38;5053135;28;20311;-70
2022/07/28 06:50:23;;;;;;;5.30;3.10;;;;;;;20.13;55.70;97973.59;5053145;28;20726;-69
2022/07/28 06:52:50;;;;;;;3.30;2.70;;;;;;;20.21;55.23;97975.66;5052455;28;20299;-69
2022/07/28 06:55:16;;;;;;;5.83;3.20;;;;;;;20.01;56.34;97980.38;5052715;28;20571;-69
2022/07/28 06:57:43;;;;;;;4.73;2.77;;;;;;;20.23;55.71;97978.91;5053115;28;20201;-69
2022/07/28 07:00:12;;;;;;;5.23;2.70;;;;;;;20.05;55.63;97976.84;5052910;28;20316;-69
2022/07/28 07:02:40;;;;;;;5.27;3.17;;;;;;;20.06;55.63;97981.16;5052589;28;20205;-69
2022/07/28 07:05:08;;;;;;;4.50;3.20;;;;;;;20.10;56.08;97971.44;5052919;28;20292;-69
2022/07/28 07:07:34;;;;;;;5.43;3.10;;;;;;;20.18;55.68;97978.13;5053255;28;20688;-69
2022/07/28 07:10:00;;;;;;;6.23;3.33;;;;;;;20.36;55.52;97967.47;5052388;28;20364;-69
2022/07/28 07:12:27;;;;;;;3.50;2.90;;;;;;;20.31;55.86;97972.91;5052892;28;20220;-69
2022/07/28 07:14:54;;;;;;;6.53;3.03;;;;;;;20.53;55.08;97967.03;5052828;28;20216;-69
2022/07/28 07:17:20;;;;;;;5.30;3.00;;;;;;;20.59;55.43;97965.91;5052902;28;20542;-69
2022/07/28 07:19:46;;;;;;;6.80;2.90;;;;;;;20.31;55.68;97964.81;5052731;28;20229;-69
2022/07/28 07:22:14;;;;;;;5.03;2.80;;;;;;;20.75;55.39;97968.16;5052941;28;20211;-69
2022/07/28 07:24:40;;;;;;;7.60;3.13;;;;;;;20.59;55.16;97961.31;5052450;28;20671;-69
2022/07/28 07:27:07;;;;;;;3.90;3.50;;;;;;;20.83;55.33;97964.03;5052986;28;20320;-69
2022/07/28 07:29:33;;;;;;;3.97;3.00;;;;;;;21.07;54.94;97962.97;5052787;28;20256;-69
2022/07/28 07:31:59;;;;;;;4.17;3.43;;;;;;;21.08;54.51;97963.78;5052636;28;20304;-69
2022/07/28 07:34:26;;;;;;;7.00;3.53;;;;;;;20.94;54.60;97958.25;5052886;28;20213;-69
2022/07/28 07:36:52;;;;;;;5.93;2.83;;;;;;;20.85;55.65;97959.16;5052644;28;20288;-69
2022/07/28 07:39:19;;;;;;;5.93;3.97;;;;;;;21.07;55.19;97962.19;5052726;28;20316;-69
2022/07/28 07:41:45;;;;;;;5.27;3.70;;;;;;;21.23;54.85;97955.47;5052570;28;20300;-69
2022/07/28 07:44:11;;;;;;;5.33;3.80;;;;;;;21.29;54.93;97954.34;5052684;28;20209;-69
2022/07/28 07:46:38;;;;;;;4.70;3.60;;;;;;;21.34;55.04;97956.97;5052114;28;20553;-69
2022/07/28 07:49:05;;;;;;;6.50;3.67;;;;;;;21.50;54.88;97947.56;5052754;28;20235;-69
2022/07/28 07:51:32;;;;;;;5.80;3.40;;;;;;;21.66;54.71;97955.16;5052680;28;20694;-69
2022/07/28 07:53:58;;;;;;;5.03;3.90;;;;;;;21.46;54.78;97954.63;5052651;28;20288;-70
2022/07/28 07:56:25;;;;;;;5.00;3.90;;;;;;;21.78;55.28;97957.47;5052607;28;20209;-69
2022/07/28 07:58:52;;;;;;;5.07;4.10;;;;;;;21.71;54.74;97957.84;5052046;28;20810;-69
2022/07/28 08:01:18;;;;;;;4.20;3.80;;;;;;;21.85;54.87;97949.81;5052577;28;20209;-69
2022/07/28 08:03:45;;;;;;;5.07;4.20;;;;;;;21.87;54.87;97951.13;5054244;28;20295;-69
2022/07/28 08:06:11;;;;;;;4.40;4.00;;;;;;;21.96;54.54;97949.34;5055865;28;20213;-69
2022/07/28 08:08:38;;;;;;;4.77;3.67;;;;;;;21.79;54.90;97948.28;5055969;28;20248;-69
2022/07/28 08:11:04;;;;;;;4.93;3.93;;;;;;;22.11;54.74;97951.03;5055910;28;20551;-69
2022/07/28 08:13:30;;;;;;;4.10;3.70;;;;;;;22.26;55.17;97951.59;5056342;28;20210;-69
2022/07/28 08:15:58;;;;;;;6.90;4.57;;;;;;;22.41;53.88;97953.22;5056930;28;20225;-69
2022/07/28 08:18:25;;;;;;;5.70;4.17;;;;;;;22.41;54.34;97945.09;5056290;28;20207;-69
2022/07/28 08:20:51;;;;;;;6.33;3.37;;;;;;;22.42;54.30;97949.41;5056361;28;20296;-69
2022/07/28 08:23:17;;;;;;;6.73;4.50;;;;;;;22.52;54.06;97952.00;5055950;28;20256;-69
2022/07/28 08:25:44;;;;;;;4.45;4.05;;;;;;;22.46;54.08;97945.84;5056056;28;20205;-69
2022/07/28 08:28:10;;;;;;;4.50;3.43;;;;;;;22.68;53.41;97946.00;5055537;28;20259;-69
2022/07/28 08:30:37;;;;;;;6.43;4.38;;;;;;;22.79;53.42;97938.50;5055737;28;20575;-69
2022/07/28 08:33:03;;;;;;;5.00;4.13;;;;;;;22.87;53.42;97945.91;5056305;28;20212;-70
2022/07/28 08:35:29;;;;;;;5.20;4.10;;;;;;;23.07;53.27;97943.59;5055913;28;20297;-70
2022/07/28 08:37:56;;;;;;;5.32;4.00;;;;;;;23.00;53.09;97942.41;5055846;28;20304;-70
2022/07/28 08:40:22;;;;;;;6.40;3.88;;;;;;;22.93;53.52;97936.59;5055257;28;20316;-70
2022/07/28 08:43:00;;;;;;;5.38;3.90;;;;;;;22.96;54.26;97930.53;5055453;28;20560;-70
2022/07/28 08:45:29;;;;;;;6.30;4.22;;;;;;;23.23;52.88;97938.69;5055360;28;20276;-69
2022/07/28 08:47:56;;;;;;;5.70;3.97;;;;;;;23.44;52.87;97937.19;5055236;28;20569;-69
2022/07/28 08:50:24;;;;;;;5.82;4.05;;;;;;;23.64;52.36;97931.28;5054367;28;20316;-70
2022/07/28 08:52:52;;;;;;;7.43;4.38;;;;;;;23.74;51.82;97933.81;5055869;28;20243;-70
2022/07/28 08:55:28;;;;;;;5.72;4.20;;;;;;;23.88;51.48;97937.28;5055333;28;20212;-70
2022/07/28 08:57:55;;;;;;;4.47;4.13;;;;;;;23.52;52.00;97931.84;5056328;28;20195;-70
2022/07/28 09:00:24;;;;;;;4.50;3.92;;;;;;;23.71;52.37;97926.25;5055423;28;20225;-70
2022/07/28 09:02:51;;;;;;;5.93;4.05;;;;;;;23.83;51.31;97923.81;5055366;28;20213;-69
2022/07/28 09:05:20;;;;;;;5.97;4.10;;;;;;;23.92;51.66;97922.03;5055005;28;20647;-70
2022/07/28 09:07:49;;;;;;;4.60;4.13;;;;;;;23.82;51.59;97927.63;5055053;28;20225;-70
2022/07/28 09:10:17;;;;;;;4.97;4.57;;;;;;;23.96;51.10;97931.13;5054848;28;20792;-69
2022/07/28 09:12:44;;;;;;;6.13;4.10;;;;;;;23.89;51.60;97928.03;5054769;28;20201;-70
2022/07/28 09:15:12;;;;;;;4.55;4.15;;;;;;;23.96;51.25;97925.69;5054254;28;20288;-70
2022/07/28 09:17:42;;;;;;;5.57;4.28;;;;;;;24.05;51.39;97923.84;5055769;28;20216;-70
2022/07/28 09:20:10;;;;;;;4.80;4.30;;;;;;;24.13;50.90;97917.69;5055378;28;20222;-69
2022/07/28 09:22:54;;;;;;;4.75;3.92;;;;;;;24.49;50.24;97924.66;5054995;28;20296;-70
2022/07/28 09:25:21;;;;;;;5.03;4.50;;;;;;;24.11;51.22;97926.13;5054980;28;20712;-69
2022/07/28 09:27:47;;;;;;;4.88;4.00;;;;;;;24.33;50.94;97917.19;5055215;28;20229;-70
2022/07/28 09:30:13;;;;;;;6.40;3.97;;;;;;;24.19;51.12;97913.75;5055393;28;20221;-70
2022/07/28 09:32:40;;;;;;;4.03;3.72;;;;;;;24.60;50.24;97908.91;5054828;28;20224;-70
2022/07/28 09:35:19;;;;;;;5.47;4.00;;;;;;;24.47;50.50;97915.19;5054713;28;20209;-70
2022/07/28 09:37:45;;;;;;;6.80;4.38;;;;;;;24.55;50.93;97908.97;5054760;28;20229;-70
2022/07/28 09:40:13;;;;;;;5.55;4.13;;;;;;;24.56;50.22;97918.78;5054427;28;20236;-70
2022/07/28 09:42:48;;;;;;;7.78;4.28;;;;;;;24.81;49.70;97909.94;5054402;28;20767;-70
2022/07/28 09:45:15;;;;;;;4.53;3.78;;;;;;;25.45;48.29;97906.47;5054607;28;20295;-70
2022/07/28 09:47:42;;;;;;;6.20;4.07;;;;;;;25.18;48.42;97902.09;5054077;28;20225;-70
2022/07/28 09:50:19;;;;;;;6.53;3.90;;;;;;;25.38;48.44;97900.72;5054455;28;20221;-70
2022/07/28 09:52:46;;;;;;;4.55;3.92;;;;;;;25.58;47.24;97894.66;5054962;28;20280;-69
2022/07/28 09:55:13;;;;;;;4.03;3.58;;;;;;;25.63;47.33;97886.31;5054247;28;20303;-70
2022/07/28 09:57:40;;;;;;;5.55;3.78;;;;;;;25.59;47.53;97885.34;5054378;28;20300;-70
2022/07/28 10:00:10;;;;;;;5.38;3.90;;;;;;;25.73;46.61;97888.75;5053757;28;20231;-70
2022/07/28 10:02:37;;;;;;;4.50;4.05;;;;;;;25.55;46.94;97881.69;5054222;28;20189;-70
2022/07/28 10:05:04;;;;;;;5.53;3.80;;;;;;;26.03;46.10;97885.88;5054183;28;20209;-70
2022/07/28 10:07:33;;;;;;;6.90;4.25;;;;;;;26.11;46.42;97887.81;5053274;28;20315;-69
2022/07/28 10:10:10;;;;;;;4.20;3.80;;;;;;;25.95;46.05;97880.41;5053317;28;20245;-70
2022/07/28 10:12:38;;;;;;;4.20;3.80;;;;;;;26.12;45.12;97881.22;5053827;28;20189;-69
2022/07/28 10:17:57;;;;;;;3.80;3.40;;;;;;;26.30;45.36;97877.34;5053495;28;20243;-70
2022/07/28 10:20:26;;;;;;;4.40;4.05;;;;;;;26.36;44.94;97867.03;5053958;28;20308;-70
2022/07/28 10:22:58;;;;;;;5.60;3.55;;;;;;;26.33;44.91;97868.50;5053861;28;20291;-70
2022/07/28 10:25:26;;;;;;;5.00;4.00;;;;;;;26.42;45.17;97868.50;5052783;28;20280;-70
2022/07/28 10:27:53;;;;;;;4.85;3.70;;;;;;;26.38;45.09;97864.81;5051316;28;20718;-70
2022/07/28 10:30:20;;;;;;;4.75;3.60;;;;;;;26.59;44.87;97860.28;5053306;28;20220;-70
2022/07/28 10:32:46;;;;;;;5.20;3.90;;;;;;;27.10;43.88;97860.03;5053917;28;20210;-71
2022/07/28 10:35:17;;;;;;;3.63;3.33;;;;;;;26.76;43.70;97865.66;5053706;28;20299;-70
2022/07/28 10:37:51;;;;;;;6.28;3.50;;;;;;;26.72;44.13;97859.25;5053209;28;20181;-70
2022/07/28 10:40:22;;;;;;;12.48;4.20;;;;;;;26.14;44.61;97849.00;5053448;28;20227;-70
2022/07/28 10:42:48;;;;;;;4.32;3.90;;;;;;;26.40;44.76;97848.91;5052805;28;20200;-70
2022/07/28 10:45:16;;;;;;;4.25;3.50;;;;;;;26.48;44.03;97846.19;5053228;28;20205;-70
2022/07/28 10:47:45;;;;;;;7.30;3.72;;;;;;;26.89;43.54;97846.34;5053281;28;20311;-70
2022/07/28 10:50:11;;;;;;;4.20;3.75;;;;;;;27.34;42.79;97853.97;5052952;28;20351;-70
2022/07/28 10:52:41;;;;;;;4.40;4.00;;;;;;;27.01;43.49;97851.09;5052999;28;20623;-70
2022/07/28 10:55:34;;;;;;;4.40;3.38;;;;;;;26.84;43.51;97835.63;5053326;28;20228;-70
2022/07/28 10:58:19;;;;;;;5.13;3.50;;;;;;;26.68;44.03;97847.41;5052275;28;20194;-70
2022/07/28 11:00:50;;;;;;;4.25;3.63;;;;;;;27.47;42.86;97848.25;5053270;28;20570;-70
2022/07/28 11:03:39;;;;;;;5.78;3.55;;;;;;;27.51;42.38;97846.47;5052653;28;20211;-70
2022/07/28 11:06:26;;;;;;;4.18;3.22;;;;;;;27.56;41.86;97837.25;5053026;28;20307;-69
2022/07/28 11:08:54;;;;;;;6.18;3.45;;;;;;;27.36;42.40;97838.88;5052512;28;20225;-70
2022/07/28 11:11:53;;;;;;;4.88;3.25;;;;;;;28.07;40.71;97837.63;5051377;28;20212;-70
2022/07/28 11:14:25;;;;;;;4.45;3.35;;;;;;;27.93;40.05;97839.84;5052932;28;20292;-70
2022/07/28 11:17:00;;;;;;;3.55;2.83;;;;;;;28.12;39.70;97839.38;5052625;28;20304;-70
2022/07/28 11:19:30;;;;;;;4.70;3.63;;;;;;;28.16;39.94;97838.34;5052809;28;20220;-70
2022/07/28 11:22:15;;;;;;;3.65;3.35;;;;;;;28.11;39.54;97827.63;5052833;28;20295;-70
2022/07/28 11:24:57;;;;;;;4.15;3.55;;;;;;;28.05;39.77;97837.19;5052571;28;20213;-70
2022/07/28 11:27:42;;;;;;;6.20;3.45;;;;;;;27.68;39.82;97829.94;5052423;28;20201;-70
2022/07/28 11:30:34;;;;;;;4.00;3.10;;;;;;;27.91;39.50;97825.75;5052982;28;20225;-70
2022/07/28 11:33:05;;;;;;;5.05;3.40;;;;;;;27.66;40.05;97834.16;5052382;28;20296;-70
2022/07/28 11:35:53;;;;;;;4.05;3.65;;;;;;;27.17;41.25;97835.75;5052468;28;20628;-70
2022/07/28 11:38:19;;;;;;;3.65;3.33;;;;;;;27.13;41.57;97838.34;5053346;28;20201;-70
2022/07/28 11:40:51;;;;;;;3.92;3.60;;;;;;;27.18;41.56;97826.44;5056589;28;20755;-70
2022/07/28 11:43:21;;;;;;;5.03;3.67;;;;;;;27.12;42.23;97825.00;5056521;28;20661;-70
2022/07/28 11:45:49;;;;;;;3.85;3.47;;;;;;;27.38;41.80;97822.13;5057351;28;20236;-70
2022/07/28 11:48:25;;;;;;;4.32;3.55;;;;;;;27.76;40.47;97828.28;5056563;28;20287;-70
2022/07/28 11:51:03;;;;;;;4.32;3.35;;;;;;;27.71;40.49;97823.78;5057144;28;20288;-70